Grass Creek, Wyoming
Current Conditions -  °F | °C
As of 6:35 AM on Saturday 25 Oct 2014 (Local Time) from KTBX Reporting Station
Clear Clear  
Wind Chill: 50°   Ceiling: Unl
Heat Index: 50°   Visibility: 10mi
Dew Point: 18°   Wind: 14mph
Humidity: 28%   Direction: 120°ESE
Pressure: 30.3"   Gusts: NA
Location:  43.7189°N, 108.442°W
Report Text: KTBX 251235Z AUTO 12012KT 10SM CLR 10/M08 A3030 RMK AO2
Loading
Personal Weather Stations






























Interactive Weather Map
Tropical Storm Tracking
New forecast layout! Learn more

10-Day Weather Forecast

Advertisements
Track Severe Weather on mobile